createdAt,value
2022-12-31T00:01:25.113Z,98232.53
2022-12-31T00:03:56.163Z,98244.53
2022-12-31T00:06:26.420Z,98246.06
2022-12-31T00:08:56.659Z,98255.00
2022-12-31T00:11:26.520Z,98244.66
2022-12-31T00:13:55.491Z,98248.00
2022-12-31T00:16:26.431Z,98244.94
2022-12-31T00:19:00.353Z,98251.03
2022-12-31T00:21:30.697Z,98257.41
2022-12-31T00:23:59.448Z,98246.63
2022-12-31T00:26:30.356Z,98257.97
2022-12-31T00:29:00.319Z,98259.22
2022-12-31T00:31:30.381Z,98252.47
2022-12-31T00:34:01.238Z,98243.81
2022-12-31T00:36:31.041Z,98252.41
2022-12-31T00:39:00.965Z,98266.22
2022-12-31T00:41:29.939Z,98261.84
2022-12-31T00:43:59.029Z,98262.50
2022-12-31T00:46:27.749Z,98265.22
2022-12-31T00:48:56.581Z,98277.50
2022-12-31T00:51:27.820Z,98274.44
2022-12-31T00:53:57.051Z,98273.50
2022-12-31T00:56:27.473Z,98281.81
2022-12-31T00:58:56.177Z,98284.13
2022-12-31T01:01:26.206Z,98280.72
2022-12-31T01:03:56.841Z,98278.09
2022-12-31T01:06:26.935Z,98282.72
2022-12-31T01:08:56.495Z,98278.78
2022-12-31T01:11:29.425Z,98279.59
2022-12-31T01:13:59.947Z,98282.22
2022-12-31T01:16:31.195Z,98273.63
2022-12-31T01:19:05.058Z,98285.09
2022-12-31T01:21:35.131Z,98281.31
2022-12-31T01:24:04.037Z,98286.91
2022-12-31T01:26:32.472Z,98285.47
2022-12-31T01:29:01.301Z,98275.81
2022-12-31T01:31:32.945Z,98264.63
2022-12-31T01:34:01.556Z,98255.09
2022-12-31T01:36:31.231Z,98240.84
2022-12-31T01:39:03.029Z,98253.22
2022-12-31T01:41:33.532Z,98271.75
2022-12-31T01:44:04.001Z,98268.97
2022-12-31T01:46:37.340Z,98269.34
2022-12-31T01:49:21.048Z,98269.88
2022-12-31T01:51:52.224Z,98279.38
2022-12-31T01:54:24.307Z,98276.66
2022-12-31T01:56:54.099Z,98275.56
2022-12-31T01:59:23.306Z,98270.03
2022-12-31T02:01:54.049Z,98265.41
2022-12-31T02:04:24.527Z,98275.59
2022-12-31T02:06:55.615Z,98277.78
2022-12-31T02:09:25.430Z,98279.78
2022-12-31T02:11:54.007Z,98272.16
2022-12-31T02:14:26.407Z,98289.47
2022-12-31T02:16:59.583Z,98282.19
2022-12-31T02:19:57.693Z,98275.16
2022-12-31T02:22:42.640Z,98264.78
2022-12-31T02:25:30.322Z,98261.25
2022-12-31T02:28:07.929Z,98259.59
2022-12-31T02:30:38.613Z,98263.13
2022-12-31T02:33:14.721Z,98243.25
2022-12-31T02:35:48.542Z,98246.78
2022-12-31T02:38:19.987Z,98239.16
2022-12-31T02:40:48.990Z,98227.06
2022-12-31T02:43:17.182Z,98234.97
2022-12-31T02:45:51.760Z,98230.97
2022-12-31T02:48:42.073Z,98232.63
2022-12-31T02:51:24.640Z,98216.25
2022-12-31T02:54:13.250Z,98207.50
2022-12-31T02:56:51.032Z,98206.97
2022-12-31T02:59:41.773Z,98197.94
2022-12-31T03:02:19.402Z,98208.88
2022-12-31T03:04:51.239Z,98222.25
2022-12-31T03:07:22.165Z,98226.03
2022-12-31T03:09:50.919Z,98230.66
2022-12-31T03:12:38.348Z,98238.59
2022-12-31T03:15:19.946Z,98242.41
2022-12-31T03:17:52.638Z,98256.66
2022-12-31T03:20:39.288Z,98271.94
2022-12-31T03:23:09.463Z,98256.63
2022-12-31T03:25:38.072Z,98255.28
2022-12-31T03:28:08.195Z,98248.44
2022-12-31T03:30:37.771Z,98254.16
2022-12-31T03:33:08.890Z,98254.41
2022-12-31T03:35:38.431Z,98252.50
2022-12-31T03:38:07.954Z,98262.88
2022-12-31T03:40:40.029Z,98264.44
2022-12-31T03:43:08.931Z,98263.66
2022-12-31T03:45:37.724Z,98249.47
2022-12-31T03:48:10.298Z,98231.63
2022-12-31T03:50:39.067Z,98238.78
2022-12-31T03:53:07.713Z,98252.75
2022-12-31T03:55:36.032Z,98262.84
2022-12-31T03:58:04.618Z,98274.59
2022-12-31T04:00:33.049Z,98270.78
2022-12-31T04:03:01.692Z,98273.50
2022-12-31T04:05:32.539Z,98270.38
2022-12-31T04:08:01.119Z,98270.75
2022-12-31T04:10:29.445Z,98266.31
2022-12-31T04:13:00.376Z,98260.13
2022-12-31T04:15:28.700Z,98260.31
2022-12-31T04:17:57.331Z,98261.94
2022-12-31T04:20:25.701Z,98272.38
2022-12-31T04:22:55.834Z,98269.00
2022-12-31T04:25:24.102Z,98272.88
2022-12-31T04:27:53.044Z,98278.88
2022-12-31T04:30:21.554Z,98285.75
2022-12-31T04:32:50.225Z,98288.13
2022-12-31T04:35:18.484Z,98278.91
2022-12-31T04:37:47.309Z,98287.63
2022-12-31T04:40:17.206Z,98287.81
2022-12-31T04:42:45.936Z,98297.44
2022-12-31T04:45:14.227Z,98301.53
2022-12-31T04:47:43.016Z,98308.88
2022-12-31T04:50:11.372Z,98310.50
2022-12-31T04:52:42.856Z,98319.81
2022-12-31T04:55:11.543Z,98324.84
2022-12-31T04:57:42.435Z,98314.16
2022-12-31T05:00:12.001Z,98318.63
2022-12-31T05:02:40.925Z,98319.22
2022-12-31T05:05:10.422Z,98328.44
2022-12-31T05:07:39.012Z,98328.50
2022-12-31T05:10:08.365Z,98324.91
2022-12-31T05:12:36.913Z,98327.19
2022-12-31T05:15:08.266Z,98318.47
2022-12-31T05:17:37.453Z,98316.69
2022-12-31T05:20:06.599Z,98316.38
2022-12-31T05:22:35.308Z,98311.44
2022-12-31T05:25:03.778Z,98297.25
2022-12-31T05:27:32.816Z,98304.16
2022-12-31T05:30:01.259Z,98307.06
2022-12-31T05:32:31.406Z,98299.56
2022-12-31T05:35:00.522Z,98299.88
2022-12-31T05:37:30.239Z,98306.16
2022-12-31T05:39:58.886Z,98311.63
2022-12-31T05:42:27.877Z,98301.00
2022-12-31T05:44:56.276Z,98296.09
2022-12-31T05:47:25.516Z,98311.94
2022-12-31T05:49:55.123Z,98326.38
2022-12-31T05:52:23.857Z,98330.63
2022-12-31T05:54:52.412Z,98327.03
2022-12-31T05:57:20.951Z,98324.09
2022-12-31T05:59:49.583Z,98315.03
2022-12-31T06:02:18.236Z,98322.31
2022-12-31T06:04:46.426Z,98315.94
2022-12-31T06:07:16.522Z,98323.16
2022-12-31T06:09:44.821Z,98331.25
2022-12-31T06:12:13.418Z,98337.81
2022-12-31T06:14:45.570Z,98338.53
2022-12-31T06:17:17.703Z,98351.28
2022-12-31T06:19:45.767Z,98335.22
2022-12-31T06:22:14.486Z,98335.91
2022-12-31T06:24:44.476Z,98338.88
2022-12-31T06:27:13.198Z,98334.53
2022-12-31T06:29:41.486Z,98333.16
2022-12-31T06:32:09.969Z,98308.84
2022-12-31T06:34:38.390Z,98321.34
2022-12-31T06:37:06.975Z,98299.25
2022-12-31T06:39:35.291Z,98321.44
2022-12-31T06:42:05.731Z,98318.16
2022-12-31T06:44:33.972Z,98322.88
2022-12-31T06:47:02.854Z,98325.13
2022-12-31T06:49:31.176Z,98315.97
2022-12-31T06:51:59.801Z,98331.78
2022-12-31T06:54:28.108Z,98338.88
2022-12-31T06:56:57.564Z,98334.94
2022-12-31T06:59:29.653Z,98328.91
2022-12-31T07:02:32.123Z,98346.38
2022-12-31T07:05:32.025Z,98348.47
2022-12-31T07:08:09.882Z,98350.81
2022-12-31T07:10:45.606Z,98350.81
2022-12-31T07:13:48.719Z,98358.03
2022-12-31T07:16:36.303Z,98361.84
2022-12-31T07:19:13.892Z,98358.69
2022-12-31T07:21:43.566Z,98378.19
2022-12-31T07:24:14.311Z,98386.44
2022-12-31T07:26:56.834Z,98368.53
2022-12-31T07:29:32.833Z,98386.75
2022-12-31T07:32:10.266Z,98376.69
2022-12-31T07:34:42.640Z,98370.03
2022-12-31T07:37:15.601Z,98371.66
2022-12-31T07:40:00.306Z,98374.03
2022-12-31T07:42:31.688Z,98350.97
2022-12-31T07:45:03.934Z,98361.13
2022-12-31T07:47:34.608Z,98378.47
2022-12-31T07:50:04.221Z,98401.88
2022-12-31T07:52:35.717Z,98397.13
2022-12-31T07:55:04.978Z,98387.47
2022-12-31T07:57:38.730Z,98390.09
2022-12-31T08:00:11.169Z,98394.94
2022-12-31T08:03:00.363Z,98390.69
2022-12-31T08:05:33.857Z,98392.75
2022-12-31T08:08:12.948Z,98393.28
2022-12-31T08:10:46.461Z,98397.13
2022-12-31T08:13:15.445Z,98387.97
2022-12-31T08:15:45.040Z,98404.88
2022-12-31T08:18:15.476Z,98393.22
2022-12-31T08:20:51.218Z,98402.03
2022-12-31T08:23:25.039Z,98393.63
2022-12-31T08:26:08.517Z,98392.88
2022-12-31T08:28:50.645Z,98378.34
2022-12-31T08:31:21.606Z,98370.78
2022-12-31T08:33:59.351Z,98366.72
2022-12-31T08:36:35.304Z,98374.00
2022-12-31T08:39:08.167Z,98385.94
2022-12-31T08:41:43.193Z,98384.66
2022-12-31T08:44:16.806Z,98405.81
2022-12-31T08:46:54.696Z,98408.09
2022-12-31T08:49:29.079Z,98404.50
2022-12-31T08:51:58.602Z,98398.28
2022-12-31T08:54:27.871Z,98409.56
2022-12-31T08:57:02.224Z,98399.81
2022-12-31T08:59:40.041Z,98393.78
2022-12-31T09:02:48.084Z,98380.25
2022-12-31T09:05:24.809Z,98403.69
2022-12-31T09:08:04.581Z,98409.38
2022-12-31T09:10:34.971Z,98405.28
2022-12-31T09:13:08.582Z,98385.94
2022-12-31T09:15:40.823Z,98380.22
2022-12-31T09:18:10.468Z,98375.22
2022-12-31T09:20:43.908Z,98388.03
2022-12-31T09:23:14.783Z,98375.66
2022-12-31T09:25:46.712Z,98360.31
2022-12-31T09:28:19.849Z,98372.59
2022-12-31T09:30:55.373Z,98369.38
2022-12-31T09:33:35.925Z,98384.19
2022-12-31T09:36:08.169Z,98385.59
2022-12-31T09:38:41.197Z,98382.44
2022-12-31T09:41:31.941Z,98369.72
2022-12-31T09:44:27.702Z,98388.84
2022-12-31T09:47:25.755Z,98369.22
2022-12-31T09:50:26.060Z,98388.28
2022-12-31T09:53:14.090Z,98362.78
2022-12-31T09:55:47.693Z,98383.69
2022-12-31T09:58:29.713Z,98390.66
2022-12-31T10:01:02.495Z,98386.88
2022-12-31T10:03:41.840Z,98363.13
2022-12-31T10:06:20.177Z,98374.47
2022-12-31T10:09:02.875Z,98371.22
2022-12-31T10:11:36.961Z,98377.72
2022-12-31T10:14:27.000Z,98341.16
2022-12-31T10:17:03.223Z,98362.09
2022-12-31T10:20:01.372Z,98362.69
2022-12-31T10:22:46.310Z,98366.88
2022-12-31T10:25:38.726Z,98366.19
2022-12-31T10:28:16.904Z,98370.88
2022-12-31T10:30:50.665Z,98376.22
2022-12-31T10:33:27.189Z,98362.97
2022-12-31T10:35:58.201Z,98377.59
2022-12-31T10:38:29.347Z,98390.94
2022-12-31T10:44:24.848Z,98382.75
2022-12-31T10:47:39.061Z,98412.84
2022-12-31T10:50:32.448Z,98403.22
2022-12-31T10:53:29.417Z,98400.56
2022-12-31T10:56:42.435Z,98398.31
2022-12-31T10:59:31.058Z,98395.91
2022-12-31T11:02:14.761Z,98398.72
2022-12-31T11:05:11.579Z,98366.50
2022-12-31T11:07:58.704Z,98371.16
2022-12-31T11:10:48.326Z,98378.38
2022-12-31T11:13:49.075Z,98377.28
2022-12-31T11:16:30.506Z,98365.19
2022-12-31T11:19:04.989Z,98370.91
2022-12-31T11:21:47.889Z,98373.66
2022-12-31T11:24:26.609Z,98369.72
2022-12-31T11:27:07.639Z,98378.38
2022-12-31T11:29:48.200Z,98390.28
2022-12-31T11:32:22.720Z,98371.94
2022-12-31T11:35:13.633Z,98369.00
2022-12-31T11:37:47.126Z,98377.78
2022-12-31T11:40:51.075Z,98369.97
2022-12-31T11:43:28.422Z,98365.97
2022-12-31T11:46:20.021Z,98350.09
2022-12-31T11:49:02.711Z,98334.94
2022-12-31T11:51:44.275Z,98368.63
2022-12-31T11:54:47.918Z,98375.34
2022-12-31T11:57:21.898Z,98360.22
2022-12-31T11:59:52.365Z,98356.50
2022-12-31T12:02:27.168Z,98371.09
2022-12-31T12:05:06.529Z,98344.28
2022-12-31T12:07:41.481Z,98354.69
2022-12-31T12:10:20.549Z,98357.09
2022-12-31T12:12:49.507Z,98348.53
2022-12-31T12:15:22.707Z,98332.84
2022-12-31T12:17:54.590Z,98349.31
2022-12-31T12:20:30.777Z,98346.22
2022-12-31T12:23:00.623Z,98343.72
2022-12-31T12:25:39.352Z,98333.53
2022-12-31T12:28:25.864Z,98353.47
2022-12-31T12:31:00.725Z,98334.03
2022-12-31T12:33:31.806Z,98340.72
2022-12-31T12:36:12.601Z,98334.22
2022-12-31T12:38:43.526Z,98343.09
2022-12-31T12:41:13.994Z,98341.03
2022-12-31T12:43:43.916Z,98326.72
2022-12-31T12:46:23.242Z,98341.28
2022-12-31T12:48:59.109Z,98329.41
2022-12-31T12:51:51.600Z,98335.53
2022-12-31T12:54:31.451Z,98337.22
2022-12-31T12:57:11.723Z,98328.53
2022-12-31T13:00:03.565Z,98344.53
2022-12-31T13:02:56.704Z,98316.19
2022-12-31T13:05:34.378Z,98318.47
2022-12-31T13:08:14.566Z,98301.47
2022-12-31T13:11:08.384Z,98316.25
2022-12-31T13:13:43.541Z,98315.13
2022-12-31T13:16:19.177Z,98325.34
2022-12-31T13:18:56.448Z,98326.41
2022-12-31T13:21:35.272Z,98295.22
2022-12-31T13:24:15.184Z,98305.19
2022-12-31T13:26:47.135Z,98320.91
2022-12-31T13:29:18.754Z,98333.81
2022-12-31T13:31:49.461Z,98329.56
2022-12-31T13:34:25.098Z,98337.94
2022-12-31T13:36:55.661Z,98343.53
2022-12-31T13:39:28.793Z,98329.81
2022-12-31T13:42:00.719Z,98333.13
2022-12-31T13:44:33.819Z,98351.59
2022-12-31T13:47:06.360Z,98323.03
2022-12-31T13:49:40.086Z,98350.97
2022-12-31T13:52:19.998Z,98363.69
2022-12-31T13:54:56.681Z,98360.16
2022-12-31T13:57:37.859Z,98361.09
2022-12-31T14:00:08.205Z,98361.47
2022-12-31T14:02:40.207Z,98372.34
2022-12-31T14:05:19.635Z,98361.38
2022-12-31T14:07:52.213Z,98377.38
2022-12-31T14:10:28.373Z,98371.97
2022-12-31T14:13:01.431Z,98376.34
2022-12-31T14:15:33.240Z,98369.66
2022-12-31T14:18:07.325Z,98366.19
2022-12-31T14:20:44.328Z,98377.16
2022-12-31T14:23:21.351Z,98373.72
2022-12-31T14:25:55.244Z,98372.84
2022-12-31T14:28:30.064Z,98382.63
2022-12-31T14:31:04.473Z,98381.50
2022-12-31T14:33:41.456Z,98370.72
2022-12-31T14:36:32.673Z,98387.13
2022-12-31T14:39:16.721Z,98387.88
2022-12-31T14:41:57.551Z,98371.22
2022-12-31T14:44:34.085Z,98399.16
2022-12-31T14:47:11.958Z,98385.31
2022-12-31T14:49:46.915Z,98385.66
2022-12-31T14:52:23.890Z,98399.72
2022-12-31T14:55:03.309Z,98399.34
2022-12-31T14:58:16.690Z,98389.13
2022-12-31T15:00:33.663Z,98386.25
2022-12-31T15:03:09.422Z,98382.22
2022-12-31T15:05:39.273Z,98387.91
2022-12-31T15:08:27.191Z,98391.94
2022-12-31T15:11:12.372Z,98402.16
2022-12-31T15:13:54.228Z,98374.47
2022-12-31T15:16:33.999Z,98391.28
2022-12-31T15:20:01.345Z,98404.69
2022-12-31T15:22:40.160Z,98398.88
2022-12-31T15:25:25.770Z,98404.97
2022-12-31T15:27:55.202Z,98388.72
2022-12-31T15:30:37.632Z,98403.41
2022-12-31T15:33:09.372Z,98401.06
2022-12-31T15:35:51.454Z,98411.19
2022-12-31T15:38:33.284Z,98407.44
2022-12-31T15:41:15.334Z,98408.69
2022-12-31T15:43:47.382Z,98427.91
2022-12-31T15:46:20.630Z,98412.56
2022-12-31T15:48:56.555Z,98408.78
2022-12-31T15:51:31.113Z,98408.16
2022-12-31T15:54:01.096Z,98402.09
2022-12-31T15:56:35.453Z,98407.72
2022-12-31T15:59:07.976Z,98415.97
2022-12-31T16:01:42.220Z,98425.47
2022-12-31T16:04:18.196Z,98382.00
2022-12-31T16:06:50.895Z,98407.06
2022-12-31T16:09:23.574Z,98417.13
2022-12-31T16:11:54.479Z,98416.34
2022-12-31T16:14:25.890Z,98406.53
2022-12-31T16:16:59.134Z,98404.34
2022-12-31T16:19:35.559Z,98439.00
2022-12-31T16:22:10.316Z,98427.72
2022-12-31T16:25:02.797Z,98429.00
2022-12-31T16:27:29.878Z,98414.81
2022-12-31T16:30:00.857Z,98439.56
2022-12-31T16:32:39.040Z,98423.25
2022-12-31T16:35:23.949Z,98432.91
2022-12-31T16:38:04.506Z,98421.88
2022-12-31T16:40:34.897Z,98417.84
2022-12-31T16:43:04.843Z,98441.41
2022-12-31T16:45:35.298Z,98401.53
2022-12-31T16:48:17.210Z,98439.94
2022-12-31T16:50:49.207Z,98446.41
2022-12-31T16:53:21.631Z,98449.03
2022-12-31T16:55:55.778Z,98455.53
2022-12-31T16:58:29.194Z,98463.88
2022-12-31T17:01:02.491Z,98469.88
2022-12-31T17:03:33.844Z,98458.81
2022-12-31T17:06:14.754Z,98446.84
2022-12-31T17:08:44.596Z,98441.91
2022-12-31T17:11:23.823Z,98446.13
2022-12-31T17:13:58.509Z,98437.41
2022-12-31T17:16:27.589Z,98446.03
2022-12-31T17:18:59.030Z,98440.75
2022-12-31T17:21:30.350Z,98456.81
2022-12-31T17:24:03.701Z,98460.50
2022-12-31T17:26:34.411Z,98441.78
2022-12-31T17:29:05.931Z,98435.41
2022-12-31T17:31:37.992Z,98454.63
2022-12-31T17:34:22.332Z,98439.16
2022-12-31T17:37:00.369Z,98452.31
2022-12-31T17:39:46.953Z,98455.03
2022-12-31T17:42:22.127Z,98448.28
2022-12-31T17:44:51.300Z,98452.25
2022-12-31T17:47:20.224Z,98457.16
2022-12-31T17:49:51.018Z,98456.34
2022-12-31T17:52:20.248Z,98449.81
2022-12-31T17:54:49.546Z,98470.28
2022-12-31T17:57:25.969Z,98482.81
2022-12-31T17:59:55.536Z,98471.09
2022-12-31T18:02:24.130Z,98461.13
2022-12-31T18:04:55.198Z,98449.41
2022-12-31T18:07:23.948Z,98462.34
2022-12-31T18:09:53.454Z,98453.81
2022-12-31T18:12:21.927Z,98477.28
2022-12-31T18:14:53.565Z,98472.25
2022-12-31T18:17:22.204Z,98471.81
2022-12-31T18:20:06.874Z,98464.41
2022-12-31T18:22:37.567Z,98442.38
2022-12-31T18:25:07.552Z,98468.97
2022-12-31T18:27:36.244Z,98461.19
2022-12-31T18:30:07.531Z,98456.63
2022-12-31T18:32:36.598Z,98456.34
2022-12-31T18:36:06.523Z,98473.03
2022-12-31T18:38:21.864Z,98467.66
2022-12-31T18:40:56.147Z,98479.94
2022-12-31T18:43:25.394Z,98487.16
2022-12-31T18:45:54.882Z,98486.84
2022-12-31T18:48:23.622Z,98474.09
2022-12-31T18:50:52.903Z,98477.25
2022-12-31T18:53:24.485Z,98480.91
2022-12-31T18:55:55.277Z,98464.63
2022-12-31T18:58:24.535Z,98471.41
2022-12-31T19:00:53.633Z,98477.81
2022-12-31T19:03:27.481Z,98488.84
2022-12-31T19:05:56.058Z,98470.16
2022-12-31T19:08:26.767Z,98479.69
2022-12-31T19:10:55.364Z,98475.75
2022-12-31T19:13:24.202Z,98481.38
2022-12-31T19:15:53.977Z,98474.34
2022-12-31T19:18:23.355Z,98489.25
2022-12-31T19:20:54.963Z,98480.09
2022-12-31T19:23:27.958Z,98496.31
2022-12-31T19:26:00.161Z,98486.91
2022-12-31T19:28:31.669Z,98484.09
2022-12-31T19:31:00.726Z,98479.16
2022-12-31T19:33:30.483Z,98484.44
2022-12-31T19:36:01.109Z,98483.44
2022-12-31T19:38:40.526Z,98489.69
2022-12-31T19:41:16.536Z,98460.25
2022-12-31T19:43:50.420Z,98466.91
2022-12-31T19:46:24.303Z,98464.00
2022-12-31T19:48:55.113Z,98474.84
2022-12-31T19:51:33.488Z,98490.69
2022-12-31T19:54:06.770Z,98506.66
2022-12-31T19:56:36.854Z,98498.78
2022-12-31T19:59:11.433Z,98503.22
2022-12-31T20:01:40.726Z,98506.41
2022-12-31T20:04:16.087Z,98500.63
2022-12-31T20:06:45.940Z,98493.19
2022-12-31T20:09:17.580Z,98506.72
2022-12-31T20:11:47.164Z,98519.66
2022-12-31T20:14:17.190Z,98508.78
2022-12-31T20:16:47.609Z,98511.41
2022-12-31T20:19:19.233Z,98510.69
2022-12-31T20:21:48.747Z,98511.69
2022-12-31T20:24:23.806Z,98508.03
2022-12-31T20:26:55.084Z,98507.44
2022-12-31T20:29:32.831Z,98478.88
2022-12-31T20:32:15.337Z,98502.41
2022-12-31T20:34:47.500Z,98488.59
2022-12-31T20:37:16.796Z,98500.34
2022-12-31T20:39:48.257Z,98496.25
2022-12-31T20:42:17.086Z,98476.13
2022-12-31T20:44:54.396Z,98498.25
2022-12-31T20:47:25.974Z,98480.75
2022-12-31T20:50:11.652Z,98481.13
2022-12-31T20:52:42.396Z,98485.38
2022-12-31T20:55:14.303Z,98475.66
2022-12-31T20:57:43.206Z,98482.25
2022-12-31T21:00:15.834Z,98489.78
2022-12-31T21:02:53.897Z,98487.84
2022-12-31T21:05:29.124Z,98468.59
2022-12-31T21:13:40.916Z,98485.25
2022-12-31T21:16:19.061Z,98486.25
2022-12-31T21:18:50.439Z,98462.44
2022-12-31T21:21:25.456Z,98485.53
2022-12-31T21:27:03.080Z,98496.38
2022-12-31T21:29:55.770Z,98501.50
2022-12-31T21:32:28.206Z,98518.53
2022-12-31T21:35:31.519Z,98509.44
2022-12-31T21:37:58.465Z,98513.53
2022-12-31T21:40:34.105Z,98518.75
2022-12-31T21:43:09.135Z,98510.63
2022-12-31T21:45:38.280Z,98511.88
2022-12-31T21:48:25.560Z,98519.66
2022-12-31T21:50:55.596Z,98512.50
2022-12-31T21:53:29.210Z,98524.13
2022-12-31T21:56:09.168Z,98535.00
2022-12-31T21:58:42.589Z,98525.63
2022-12-31T22:01:31.205Z,98522.50
2022-12-31T22:04:03.101Z,98529.19
2022-12-31T22:06:38.277Z,98529.31
2022-12-31T22:09:11.008Z,98530.66
2022-12-31T22:11:40.352Z,98534.59
2022-12-31T22:14:11.835Z,98529.31
2022-12-31T22:16:40.535Z,98534.69
2022-12-31T22:19:10.704Z,98532.03
2022-12-31T22:21:39.471Z,98536.84
2022-12-31T22:24:09.447Z,98533.41
2022-12-31T22:26:43.058Z,98534.50
2022-12-31T22:29:15.483Z,98539.41
2022-12-31T22:31:44.077Z,98536.72
2022-12-31T22:34:12.903Z,98538.56
2022-12-31T22:36:41.343Z,98543.66
2022-12-31T22:39:43.721Z,98541.41
2022-12-31T22:42:04.136Z,98538.56
2022-12-31T22:44:34.675Z,98537.88
2022-12-31T22:47:03.426Z,98524.91
2022-12-31T22:49:32.227Z,98527.75
2022-12-31T22:52:04.189Z,98526.13
2022-12-31T22:54:35.869Z,98526.94
2022-12-31T22:57:05.319Z,98523.84
2022-12-31T22:59:36.731Z,98520.03
2022-12-31T23:02:06.545Z,98527.56
2022-12-31T23:04:37.222Z,98529.19
2022-12-31T23:07:07.805Z,98534.28
2022-12-31T23:09:54.431Z,98526.53
2022-12-31T23:12:23.254Z,98529.28
2022-12-31T23:15:11.938Z,98539.16
2022-12-31T23:17:58.407Z,98534.28
2022-12-31T23:20:45.496Z,98541.84
2022-12-31T23:23:16.254Z,98540.44
2022-12-31T23:25:48.076Z,98532.88
2022-12-31T23:28:16.862Z,98521.53
2022-12-31T23:30:52.077Z,98532.00
2022-12-31T23:36:13.032Z,98526.88
2022-12-31T23:38:47.035Z,98544.50
2022-12-31T23:41:19.322Z,98549.31
2022-12-31T23:43:51.820Z,98539.19
2022-12-31T23:46:23.296Z,98552.06
2022-12-31T23:48:56.513Z,98540.41
2022-12-31T23:51:41.276Z,98542.13
2022-12-31T23:54:13.117Z,98538.78
2022-12-31T23:56:44.295Z,98542.84
2022-12-31T23:59:17.705Z,98536.63
